sensor_id;sensor_type;location;lat;lon;timestamp;temperature;humidity
34095;DHT22;20372;47.080;15.410;2022-10-17T00:01:39;12.00;99.90
34095;DHT22;20372;47.080;15.410;2022-10-17T00:04:05;12.10;99.90
34095;DHT22;20372;47.080;15.410;2022-10-17T00:06:31;12.10;99.90
34095;DHT22;20372;47.080;15.410;2022-10-17T00:08:56;12.10;99.90
34095;DHT22;20372;47.080;15.410;2022-10-17T00:11:22;12.10;99.90
34095;DHT22;20372;47.080;15.410;2022-10-17T00:13:48;12.10;99.90
34095;DHT22;20372;47.080;15.410;2022-10-17T00:16:15;11.90;99.90
34095;DHT22;20372;47.080;15.410;2022-10-17T00:18:47;11.90;99.90
34095;DHT22;20372;47.080;15.410;2022-10-17T00:21:16;11.90;99.90
34095;DHT22;20372;47.080;15.410;2022-10-17T00:23:42;11.80;99.90
34095;DHT22;20372;47.080;15.410;2022-10-17T00:26:08;11.90;99.90
34095;DHT22;20372;47.080;15.410;2022-10-17T00:28:34;11.90;99.90
34095;DHT22;20372;47.080;15.410;2022-10-17T00:31:01;11.90;99.90
34095;DHT22;20372;47.080;15.410;2022-10-17T00:33:27;11.90;99.90
34095;DHT22;20372;47.080;15.410;2022-10-17T00:36:08;11.90;99.90
34095;DHT22;20372;47.080;15.410;2022-10-17T00:38:35;11.90;99.90
34095;DHT22;20372;47.080;15.410;2022-10-17T00:41:01;12.00;99.90
34095;DHT22;20372;47.080;15.410;2022-10-17T00:43:27;11.90;99.90
34095;DHT22;20372;47.080;15.410;2022-10-17T00:45:54;11.90;99.90
34095;DHT22;20372;47.080;15.410;2022-10-17T00:48:20;12.00;99.90
34095;DHT22;20372;47.080;15.410;2022-10-17T00:50:47;11.90;99.90
34095;DHT22;20372;47.080;15.410;2022-10-17T00:53:13;11.60;99.90
34095;DHT22;20372;47.080;15.410;2022-10-17T00:55:48;11.70;99.90
34095;DHT22;20372;47.080;15.410;2022-10-17T00:58:14;11.70;99.90
34095;DHT22;20372;47.080;15.410;2022-10-17T01:00:41;11.70;99.90
34095;DHT22;20372;47.080;15.410;2022-10-17T01:03:07;11.60;99.90
34095;DHT22;20372;47.080;15.410;2022-10-17T01:05:32;11.50;99.90
34095;DHT22;20372;47.080;15.410;2022-10-17T01:07:58;11.50;99.90
34095;DHT22;20372;47.080;15.410;2022-10-17T01:10:32;11.50;99.90
34095;DHT22;20372;47.080;15.410;2022-10-17T01:13:03;11.30;99.90
34095;DHT22;20372;47.080;15.410;2022-10-17T01:27:55;11.30;99.90
34095;DHT22;20372;47.080;15.410;2022-10-17T01:33:10;11.30;99.90
34095;DHT22;20372;47.080;15.410;2022-10-17T01:38:29;11.00;99.90
34095;DHT22;20372;47.080;15.410;2022-10-17T01:41:01;11.20;99.90
34095;DHT22;20372;47.080;15.410;2022-10-17T01:43:30;11.10;99.90
34095;DHT22;20372;47.080;15.410;2022-10-17T01:45:58;11.20;99.90
34095;DHT22;20372;47.080;15.410;2022-10-17T01:48:29;11.10;99.90
34095;DHT22;20372;47.080;15.410;2022-10-17T01:54:09;10.90;99.90
34095;DHT22;20372;47.080;15.410;2022-10-17T01:56:35;11.10;99.90
34095;DHT22;20372;47.080;15.410;2022-10-17T01:59:06;11.00;99.90
34095;DHT22;20372;47.080;15.410;2022-10-17T02:01:34;11.00;99.90
34095;DHT22;20372;47.080;15.410;2022-10-17T02:04:01;10.90;99.90
34095;DHT22;20372;47.080;15.410;2022-10-17T02:06:28;10.90;99.90
34095;DHT22;20372;47.080;15.410;2022-10-17T02:08:53;11.00;99.90
34095;DHT22;20372;47.080;15.410;2022-10-17T02:11:20;10.90;99.90
34095;DHT22;20372;47.080;15.410;2022-10-17T02:21:53;10.80;99.90
34095;DHT22;20372;47.080;15.410;2022-10-17T02:24:29;10.80;99.90
34095;DHT22;20372;47.080;15.410;2022-10-17T02:29:30;10.60;99.90
34095;DHT22;20372;47.080;15.410;2022-10-17T02:34:37;10.90;99.90
34095;DHT22;20372;47.080;15.410;2022-10-17T02:37:04;10.90;99.90
34095;DHT22;20372;47.080;15.410;2022-10-17T02:39:31;10.90;99.90
34095;DHT22;20372;47.080;15.410;2022-10-17T02:41:57;10.80;99.90
34095;DHT22;20372;47.080;15.410;2022-10-17T02:44:25;10.70;99.90
34095;DHT22;20372;47.080;15.410;2022-10-17T02:46:53;10.70;99.90
34095;DHT22;20372;47.080;15.410;2022-10-17T02:49:22;10.70;99.90
34095;DHT22;20372;47.080;15.410;2022-10-17T02:51:51;10.80;99.90
34095;DHT22;20372;47.080;15.410;2022-10-17T02:54:20;10.30;99.90
34095;DHT22;20372;47.080;15.410;2022-10-17T02:56:52;10.20;99.90
34095;DHT22;20372;47.080;15.410;2022-10-17T02:59:19;10.20;99.90
34095;DHT22;20372;47.080;15.410;2022-10-17T03:01:46;10.70;99.90
34095;DHT22;20372;47.080;15.410;2022-10-17T03:04:13;10.60;99.90
34095;DHT22;20372;47.080;15.410;2022-10-17T03:06:39;10.50;99.90
34095;DHT22;20372;47.080;15.410;2022-10-17T03:09:05;10.50;99.90
34095;DHT22;20372;47.080;15.410;2022-10-17T03:11:31;10.40;99.90
34095;DHT22;20372;47.080;15.410;2022-10-17T03:13:56;10.40;99.90
34095;DHT22;20372;47.080;15.410;2022-10-17T03:16:22;10.30;99.90
34095;DHT22;20372;47.080;15.410;2022-10-17T03:18:47;10.20;99.90
34095;DHT22;20372;47.080;15.410;2022-10-17T03:21:13;10.30;99.90
34095;DHT22;20372;47.080;15.410;2022-10-17T03:23:39;10.10;99.90
34095;DHT22;20372;47.080;15.410;2022-10-17T03:26:05;10.10;99.90
34095;DHT22;20372;47.080;15.410;2022-10-17T03:28:30;10.00;99.90
34095;DHT22;20372;47.080;15.410;2022-10-17T03:30:56;10.10;99.90
34095;DHT22;20372;47.080;15.410;2022-10-17T03:33:21;10.00;99.90
34095;DHT22;20372;47.080;15.410;2022-10-17T03:35:47;9.90;99.90
34095;DHT22;20372;47.080;15.410;2022-10-17T03:38:13;10.30;99.90
34095;DHT22;20372;47.080;15.410;2022-10-17T03:40:38;10.20;99.90
34095;DHT22;20372;47.080;15.410;2022-10-17T03:43:04;9.90;99.90
34095;DHT22;20372;47.080;15.410;2022-10-17T03:45:29;10.00;99.90
34095;DHT22;20372;47.080;15.410;2022-10-17T03:47:55;10.10;99.90
34095;DHT22;20372;47.080;15.410;2022-10-17T03:50:20;10.30;99.90
34095;DHT22;20372;47.080;15.410;2022-10-17T03:52:47;10.10;99.90
34095;DHT22;20372;47.080;15.410;2022-10-17T03:55:13;10.10;99.90
34095;DHT22;20372;47.080;15.410;2022-10-17T03:57:39;10.00;99.90
34095;DHT22;20372;47.080;15.410;2022-10-17T04:00:04;10.30;99.90
34095;DHT22;20372;47.080;15.410;2022-10-17T04:02:30;10.40;99.90
34095;DHT22;20372;47.080;15.410;2022-10-17T04:04:56;10.10;99.90
34095;DHT22;20372;47.080;15.410;2022-10-17T04:07:21;10.40;99.90
34095;DHT22;20372;47.080;15.410;2022-10-17T04:09:47;10.40;99.90
34095;DHT22;20372;47.080;15.410;2022-10-17T04:12:12;10.20;99.90
34095;DHT22;20372;47.080;15.410;2022-10-17T04:14:38;10.30;99.90
34095;DHT22;20372;47.080;15.410;2022-10-17T04:17:03;10.00;99.90
34095;DHT22;20372;47.080;15.410;2022-10-17T04:19:29;10.10;99.90
34095;DHT22;20372;47.080;15.410;2022-10-17T04:21:54;9.90;99.90
34095;DHT22;20372;47.080;15.410;2022-10-17T04:24:20;9.90;99.90
34095;DHT22;20372;47.080;15.410;2022-10-17T04:26:47;9.90;99.90
34095;DHT22;20372;47.080;15.410;2022-10-17T04:29:13;10.20;99.90
34095;DHT22;20372;47.080;15.410;2022-10-17T04:31:39;10.10;99.90
34095;DHT22;20372;47.080;15.410;2022-10-17T04:34:05;10.00;99.90
34095;DHT22;20372;47.080;15.410;2022-10-17T04:36:30;10.10;99.90
34095;DHT22;20372;47.080;15.410;2022-10-17T04:38:56;10.10;99.90
34095;DHT22;20372;47.080;15.410;2022-10-17T04:41:21;10.00;99.90
34095;DHT22;20372;47.080;15.410;2022-10-17T04:43:47;10.20;99.90
34095;DHT22;20372;47.080;15.410;2022-10-17T04:46:13;10.10;99.90
34095;DHT22;20372;47.080;15.410;2022-10-17T04:48:39;9.80;99.90
34095;DHT22;20372;47.080;15.410;2022-10-17T04:51:06;9.00;99.90
34095;DHT22;20372;47.080;15.410;2022-10-17T04:53:33;10.10;99.90
34095;DHT22;20372;47.080;15.410;2022-10-17T04:55:58;10.00;99.90
34095;DHT22;20372;47.080;15.410;2022-10-17T04:58:24;10.10;99.90
34095;DHT22;20372;47.080;15.410;2022-10-17T05:00:50;10.20;99.90
34095;DHT22;20372;47.080;15.410;2022-10-17T05:03:16;10.10;99.90
34095;DHT22;20372;47.080;15.410;2022-10-17T05:05:41;10.10;99.90
34095;DHT22;20372;47.080;15.410;2022-10-17T05:08:08;10.20;99.90
34095;DHT22;20372;47.080;15.410;2022-10-17T05:10:43;10.10;99.90
34095;DHT22;20372;47.080;15.410;2022-10-17T05:13:10;10.10;99.90
34095;DHT22;20372;47.080;15.410;2022-10-17T05:15:36;10.00;99.90
34095;DHT22;20372;47.080;15.410;2022-10-17T05:18:02;10.00;99.90
34095;DHT22;20372;47.080;15.410;2022-10-17T05:20:28;10.30;99.90
34095;DHT22;20372;47.080;15.410;2022-10-17T05:22:54;10.10;99.90
34095;DHT22;20372;47.080;15.410;2022-10-17T05:25:20;10.10;99.90
34095;DHT22;20372;47.080;15.410;2022-10-17T05:27:45;10.00;99.90
34095;DHT22;20372;47.080;15.410;2022-10-17T05:30:11;10.10;99.90
34095;DHT22;20372;47.080;15.410;2022-10-17T05:32:37;10.10;99.90
34095;DHT22;20372;47.080;15.410;2022-10-17T05:35:02;10.20;99.90
34095;DHT22;20372;47.080;15.410;2022-10-17T05:37:29;10.30;99.90
34095;DHT22;20372;47.080;15.410;2022-10-17T05:39:54;10.20;99.90
34095;DHT22;20372;47.080;15.410;2022-10-17T05:42:20;10.10;99.90
34095;DHT22;20372;47.080;15.410;2022-10-17T05:44:46;10.50;99.90
34095;DHT22;20372;47.080;15.410;2022-10-17T05:47:11;10.40;99.90
34095;DHT22;20372;47.080;15.410;2022-10-17T05:49:37;10.40;99.90
34095;DHT22;20372;47.080;15.410;2022-10-17T05:52:02;10.50;99.90
34095;DHT22;20372;47.080;15.410;2022-10-17T05:54:28;10.60;99.90
34095;DHT22;20372;47.080;15.410;2022-10-17T05:56:54;10.80;99.90
34095;DHT22;20372;47.080;15.410;2022-10-17T05:59:20;10.60;99.90
34095;DHT22;20372;47.080;15.410;2022-10-17T06:01:45;10.70;99.90
34095;DHT22;20372;47.080;15.410;2022-10-17T06:04:11;10.90;99.90
34095;DHT22;20372;47.080;15.410;2022-10-17T06:06:37;10.80;99.90
34095;DHT22;20372;47.080;15.410;2022-10-17T06:09:03;10.90;99.90
34095;DHT22;20372;47.080;15.410;2022-10-17T06:11:29;11.10;99.90
34095;DHT22;20372;47.080;15.410;2022-10-17T06:13:54;11.30;99.90
34095;DHT22;20372;47.080;15.410;2022-10-17T06:16:20;11.40;99.90
34095;DHT22;20372;47.080;15.410;2022-10-17T06:18:46;11.50;99.90
34095;DHT22;20372;47.080;15.410;2022-10-17T06:21:13;11.60;99.90
34095;DHT22;20372;47.080;15.410;2022-10-17T06:23:39;11.60;99.90
34095;DHT22;20372;47.080;15.410;2022-10-17T06:26:05;11.60;99.90
34095;DHT22;20372;47.080;15.410;2022-10-17T06:28:30;11.60;99.90
34095;DHT22;20372;47.080;15.410;2022-10-17T06:30:56;11.70;99.90
34095;DHT22;20372;47.080;15.410;2022-10-17T06:33:22;11.70;99.90
34095;DHT22;20372;47.080;15.410;2022-10-17T06:35:54;11.80;99.90
34095;DHT22;20372;47.080;15.410;2022-10-17T06:38:20;11.90;99.90
34095;DHT22;20372;47.080;15.410;2022-10-17T06:40:46;12.00;99.90
34095;DHT22;20372;47.080;15.410;2022-10-17T06:43:11;12.10;99.90
34095;DHT22;20372;47.080;15.410;2022-10-17T06:45:38;12.50;99.90
34095;DHT22;20372;47.080;15.410;2022-10-17T06:48:03;13.70;99.90
34095;DHT22;20372;47.080;15.410;2022-10-17T06:50:29;14.80;99.90
34095;DHT22;20372;47.080;15.410;2022-10-17T06:52:55;15.50;99.90
34095;DHT22;20372;47.080;15.410;2022-10-17T06:55:20;16.30;99.90
34095;DHT22;20372;47.080;15.410;2022-10-17T06:57:46;16.20;99.90
34095;DHT22;20372;47.080;15.410;2022-10-17T07:00:12;15.60;99.90
34095;DHT22;20372;47.080;15.410;2022-10-17T07:02:38;15.70;99.90
34095;DHT22;20372;47.080;15.410;2022-10-17T07:05:03;15.80;99.90
34095;DHT22;20372;47.080;15.410;2022-10-17T07:07:29;16.10;99.90
34095;DHT22;20372;47.080;15.410;2022-10-17T07:09:55;16.60;99.90
34095;DHT22;20372;47.080;15.410;2022-10-17T07:12:21;16.80;99.90
34095;DHT22;20372;47.080;15.410;2022-10-17T07:14:47;17.00;99.90
34095;DHT22;20372;47.080;15.410;2022-10-17T07:17:15;17.20;99.90
34095;DHT22;20372;47.080;15.410;2022-10-17T07:19:41;17.40;99.90
34095;DHT22;20372;47.080;15.410;2022-10-17T07:22:08;17.70;99.90
34095;DHT22;20372;47.080;15.410;2022-10-17T07:24:33;17.70;99.90
34095;DHT22;20372;47.080;15.410;2022-10-17T07:26:59;18.80;99.90
34095;DHT22;20372;47.080;15.410;2022-10-17T07:29:24;19.80;99.90
34095;DHT22;20372;47.080;15.410;2022-10-17T07:31:51;20.00;99.90
34095;DHT22;20372;47.080;15.410;2022-10-17T07:34:17;19.60;99.90
34095;DHT22;20372;47.080;15.410;2022-10-17T07:36:42;19.40;99.90
34095;DHT22;20372;47.080;15.410;2022-10-17T07:39:08;19.50;99.90
34095;DHT22;20372;47.080;15.410;2022-10-17T07:41:34;18.80;99.90
34095;DHT22;20372;47.080;15.410;2022-10-17T07:43:59;18.50;99.90
34095;DHT22;20372;47.080;15.410;2022-10-17T07:46:25;18.00;99.90
34095;DHT22;20372;47.080;15.410;2022-10-17T07:48:50;18.40;99.90
34095;DHT22;20372;47.080;15.410;2022-10-17T07:51:16;19.10;99.90
34095;DHT22;20372;47.080;15.410;2022-10-17T07:53:44;19.60;99.90
34095;DHT22;20372;47.080;15.410;2022-10-17T07:56:11;20.10;99.90
34095;DHT22;20372;47.080;15.410;2022-10-17T07:58:37;19.90;99.90
34095;DHT22;20372;47.080;15.410;2022-10-17T08:01:04;20.60;99.90
34095;DHT22;20372;47.080;15.410;2022-10-17T08:03:30;21.50;99.90
34095;DHT22;20372;47.080;15.410;2022-10-17T08:05:56;22.10;99.90
34095;DHT22;20372;47.080;15.410;2022-10-17T08:08:22;22.30;99.90
34095;DHT22;20372;47.080;15.410;2022-10-17T08:10:47;22.00;99.90
34095;DHT22;20372;47.080;15.410;2022-10-17T08:13:13;21.90;99.90
34095;DHT22;20372;47.080;15.410;2022-10-17T08:15:39;23.10;98.60
34095;DHT22;20372;47.080;15.410;2022-10-17T08:18:04;22.60;99.60
34095;DHT22;20372;47.080;15.410;2022-10-17T08:20:30;21.90;99.90
34095;DHT22;20372;47.080;15.410;2022-10-17T08:22:55;21.70;99.90
34095;DHT22;20372;47.080;15.410;2022-10-17T08:25:21;21.80;99.90
34095;DHT22;20372;47.080;15.410;2022-10-17T08:27:47;22.20;99.90
34095;DHT22;20372;47.080;15.410;2022-10-17T08:30:13;21.60;99.50
34095;DHT22;20372;47.080;15.410;2022-10-17T08:32:38;21.20;99.50
34095;DHT22;20372;47.080;15.410;2022-10-17T08:35:04;20.50;99.90
34095;DHT22;20372;47.080;15.410;2022-10-17T08:37:30;20.70;99.80
34095;DHT22;20372;47.080;15.410;2022-10-17T08:39:56;21.30;99.90
34095;DHT22;20372;47.080;15.410;2022-10-17T08:47:48;22.40;99.90
34095;DHT22;20372;47.080;15.410;2022-10-17T08:52:48;22.30;99.20
34095;DHT22;20372;47.080;15.410;2022-10-17T08:55:21;21.40;99.80
34095;DHT22;20372;47.080;15.410;2022-10-17T08:57:51;20.70;99.90
34095;DHT22;20372;47.080;15.410;2022-10-17T09:00:18;20.50;99.90
34095;DHT22;20372;47.080;15.410;2022-10-17T09:10:33;20.10;99.90
34095;DHT22;20372;47.080;15.410;2022-10-17T09:18:31;20.50;99.90
34095;DHT22;20372;47.080;15.410;2022-10-17T09:21:18;20.40;99.90
34095;DHT22;20372;47.080;15.410;2022-10-17T09:23:44;20.10;99.90
34095;DHT22;20372;47.080;15.410;2022-10-17T09:26:11;20.30;99.90
34095;DHT22;20372;47.080;15.410;2022-10-17T09:28:38;20.40;99.90
34095;DHT22;20372;47.080;15.410;2022-10-17T09:33:36;20.90;99.90
34095;DHT22;20372;47.080;15.410;2022-10-17T09:36:03;20.90;99.90
34095;DHT22;20372;47.080;15.410;2022-10-17T09:38:37;20.90;99.90
34095;DHT22;20372;47.080;15.410;2022-10-17T09:41:04;21.00;99.90
34095;DHT22;20372;47.080;15.410;2022-10-17T09:43:31;20.60;99.90
34095;DHT22;20372;47.080;15.410;2022-10-17T09:46:07;19.90;99.90
34095;DHT22;20372;47.080;15.410;2022-10-17T09:51:07;20.30;99.90
34095;DHT22;20372;47.080;15.410;2022-10-17T09:53:34;20.50;99.90
34095;DHT22;20372;47.080;15.410;2022-10-17T09:56:01;20.00;99.90
34095;DHT22;20372;47.080;15.410;2022-10-17T09:58:44;20.00;99.90
34095;DHT22;20372;47.080;15.410;2022-10-17T10:01:17;20.20;99.90
34095;DHT22;20372;47.080;15.410;2022-10-17T10:03:43;20.20;99.90
34095;DHT22;20372;47.080;15.410;2022-10-17T10:06:13;20.30;99.90
34095;DHT22;20372;47.080;15.410;2022-10-17T10:08:52;20.30;99.90
34095;DHT22;20372;47.080;15.410;2022-10-17T10:11:21;20.40;99.90
34095;DHT22;20372;47.080;15.410;2022-10-17T10:13:48;20.50;99.90
34095;DHT22;20372;47.080;15.410;2022-10-17T10:18:39;20.60;99.90
34095;DHT22;20372;47.080;15.410;2022-10-17T10:21:12;20.70;99.90
34095;DHT22;20372;47.080;15.410;2022-10-17T10:23:38;20.20;99.90
34095;DHT22;20372;47.080;15.410;2022-10-17T10:26:11;20.20;99.90
34095;DHT22;20372;47.080;15.410;2022-10-17T10:28:39;20.40;99.90
34095;DHT22;20372;47.080;15.410;2022-10-17T10:31:06;20.40;99.90
34095;DHT22;20372;47.080;15.410;2022-10-17T10:33:34;20.70;99.90
34095;DHT22;20372;47.080;15.410;2022-10-17T10:36:01;20.70;99.90
34095;DHT22;20372;47.080;15.410;2022-10-17T10:38:28;20.60;99.90
34095;DHT22;20372;47.080;15.410;2022-10-17T10:40:55;20.60;99.90
34095;DHT22;20372;47.080;15.410;2022-10-17T10:43:41;20.20;99.90
34095;DHT22;20372;47.080;15.410;2022-10-17T10:46:20;19.80;99.90
34095;DHT22;20372;47.080;15.410;2022-10-17T10:48:59;20.10;99.90
34095;DHT22;20372;47.080;15.410;2022-10-17T10:51:32;20.40;99.90
34095;DHT22;20372;47.080;15.410;2022-10-17T10:54:07;20.50;99.90
34095;DHT22;20372;47.080;15.410;2022-10-17T10:56:36;20.70;99.90
34095;DHT22;20372;47.080;15.410;2022-10-17T11:06:33;20.50;99.90
34095;DHT22;20372;47.080;15.410;2022-10-17T11:11:30;20.70;99.90
34095;DHT22;20372;47.080;15.410;2022-10-17T11:14:02;20.80;99.90
34095;DHT22;20372;47.080;15.410;2022-10-17T11:16:34;20.90;99.90
34095;DHT22;20372;47.080;15.410;2022-10-17T11:21:41;20.90;99.90
34095;DHT22;20372;47.080;15.410;2022-10-17T11:27:08;21.20;99.90
34095;DHT22;20372;47.080;15.410;2022-10-17T11:29:35;21.30;99.90
34095;DHT22;20372;47.080;15.410;2022-10-17T11:32:05;21.20;99.90
34095;DHT22;20372;47.080;15.410;2022-10-17T11:34:33;21.30;99.90
34095;DHT22;20372;47.080;15.410;2022-10-17T11:37:04;21.10;99.90
34095;DHT22;20372;47.080;15.410;2022-10-17T11:39:50;21.30;99.90
34095;DHT22;20372;47.080;15.410;2022-10-17T11:42:26;21.20;99.90
34095;DHT22;20372;47.080;15.410;2022-10-17T11:44:55;21.20;99.90
34095;DHT22;20372;47.080;15.410;2022-10-17T11:47:31;21.40;99.90
34095;DHT22;20372;47.080;15.410;2022-10-17T11:50:04;21.40;99.90
34095;DHT22;20372;47.080;15.410;2022-10-17T11:52:36;21.50;99.90
34095;DHT22;20372;47.080;15.410;2022-10-17T11:55:07;21.70;99.90
34095;DHT22;20372;47.080;15.410;2022-10-17T12:00:10;21.70;99.90
34095;DHT22;20372;47.080;15.410;2022-10-17T12:02:45;21.30;99.90
34095;DHT22;20372;47.080;15.410;2022-10-17T12:05:18;21.30;99.90
34095;DHT22;20372;47.080;15.410;2022-10-17T12:10:36;21.70;99.90
34095;DHT22;20372;47.080;15.410;2022-10-17T12:15:47;21.60;98.10
34095;DHT22;20372;47.080;15.410;2022-10-17T12:18:14;21.50;98.40
34095;DHT22;20372;47.080;15.410;2022-10-17T12:20:41;21.60;99.30
34095;DHT22;20372;47.080;15.410;2022-10-17T12:25:36;21.80;99.70
34095;DHT22;20372;47.080;15.410;2022-10-17T12:28:25;21.70;99.70
34095;DHT22;20372;47.080;15.410;2022-10-17T12:33:19;21.90;99.90
34095;DHT22;20372;47.080;15.410;2022-10-17T12:38:36;21.90;99.40
34095;DHT22;20372;47.080;15.410;2022-10-17T12:41:02;21.70;99.20
34095;DHT22;20372;47.080;15.410;2022-10-17T12:56:02;22.20;99.60
34095;DHT22;20372;47.080;15.410;2022-10-17T12:58:27;22.30;98.90
34095;DHT22;20372;47.080;15.410;2022-10-17T13:00:54;22.30;98.90
34095;DHT22;20372;47.080;15.410;2022-10-17T13:03:30;22.10;98.50
34095;DHT22;20372;47.080;15.410;2022-10-17T13:05:58;22.20;98.60
34095;DHT22;20372;47.080;15.410;2022-10-17T13:08:26;22.30;98.80
34095;DHT22;20372;47.080;15.410;2022-10-17T13:10:54;22.10;99.80
34095;DHT22;20372;47.080;15.410;2022-10-17T13:15:58;22.00;99.10
34095;DHT22;20372;47.080;15.410;2022-10-17T13:18:25;21.80;98.90
34095;DHT22;20372;47.080;15.410;2022-10-17T13:20:58;22.00;99.20
34095;DHT22;20372;47.080;15.410;2022-10-17T13:23:25;21.90;98.70
34095;DHT22;20372;47.080;15.410;2022-10-17T13:26:04;21.90;98.70
34095;DHT22;20372;47.080;15.410;2022-10-17T13:28:30;21.80;99.70
34095;DHT22;20372;47.080;15.410;2022-10-17T13:30:56;21.80;99.90
34095;DHT22;20372;47.080;15.410;2022-10-17T13:33:40;22.00;99.20
34095;DHT22;20372;47.080;15.410;2022-10-17T13:36:07;22.00;99.90
34095;DHT22;20372;47.080;15.410;2022-10-17T13:38:37;21.80;98.90
34095;DHT22;20372;47.080;15.410;2022-10-17T13:41:03;21.80;98.80
34095;DHT22;20372;47.080;15.410;2022-10-17T13:43:34;21.60;98.70
34095;DHT22;20372;47.080;15.410;2022-10-17T13:46:00;21.60;99.00
34095;DHT22;20372;47.080;15.410;2022-10-17T13:48:30;21.70;99.60
34095;DHT22;20372;47.080;15.410;2022-10-17T13:50:57;21.80;99.00
34095;DHT22;20372;47.080;15.410;2022-10-17T13:53:25;21.80;99.20
34095;DHT22;20372;47.080;15.410;2022-10-17T13:56:03;21.90;99.70
34095;DHT22;20372;47.080;15.410;2022-10-17T13:58:40;21.80;99.80
34095;DHT22;20372;47.080;15.410;2022-10-17T14:01:06;21.90;98.80
34095;DHT22;20372;47.080;15.410;2022-10-17T14:03:32;21.80;99.00
34095;DHT22;20372;47.080;15.410;2022-10-17T14:08:30;21.80;99.70
34095;DHT22;20372;47.080;15.410;2022-10-17T14:10:56;21.80;99.80
34095;DHT22;20372;47.080;15.410;2022-10-17T14:13:22;21.70;99.90
34095;DHT22;20372;47.080;15.410;2022-10-17T14:15:48;21.80;99.90
34095;DHT22;20372;47.080;15.410;2022-10-17T14:18:19;21.80;99.90
34095;DHT22;20372;47.080;15.410;2022-10-17T14:20:46;21.70;99.90
34095;DHT22;20372;47.080;15.410;2022-10-17T14:26:09;22.00;99.90
34095;DHT22;20372;47.080;15.410;2022-10-17T14:28:35;22.20;99.80
34095;DHT22;20372;47.080;15.410;2022-10-17T14:33:53;22.20;99.80
34095;DHT22;20372;47.080;15.410;2022-10-17T14:36:19;22.00;99.80
34095;DHT22;20372;47.080;15.410;2022-10-17T14:38:46;21.90;99.90
34095;DHT22;20372;47.080;15.410;2022-10-17T14:41:14;21.90;99.90
34095;DHT22;20372;47.080;15.410;2022-10-17T14:43:40;21.80;99.90
34095;DHT22;20372;47.080;15.410;2022-10-17T14:46:10;21.60;99.90
34095;DHT22;20372;47.080;15.410;2022-10-17T14:48:37;21.40;99.90
34095;DHT22;20372;47.080;15.410;2022-10-17T14:53:30;21.10;99.90
34095;DHT22;20372;47.080;15.410;2022-10-17T14:55:57;21.00;99.90
34095;DHT22;20372;47.080;15.410;2022-10-17T14:58:32;21.00;99.90
34095;DHT22;20372;47.080;15.410;2022-10-17T15:00:58;20.90;99.90
34095;DHT22;20372;47.080;15.410;2022-10-17T15:03:24;20.70;99.90
34095;DHT22;20372;47.080;15.410;2022-10-17T15:05:50;20.60;99.90
34095;DHT22;20372;47.080;15.410;2022-10-17T15:08:17;20.50;99.90
34095;DHT22;20372;47.080;15.410;2022-10-17T15:10:43;20.60;99.90
34095;DHT22;20372;47.080;15.410;2022-10-17T15:13:09;20.60;99.90
34095;DHT22;20372;47.080;15.410;2022-10-17T15:15:35;20.50;99.90
34095;DHT22;20372;47.080;15.410;2022-10-17T15:18:02;20.30;99.90
34095;DHT22;20372;47.080;15.410;2022-10-17T15:20:28;20.30;99.90
34095;DHT22;20372;47.080;15.410;2022-10-17T15:22:58;20.20;99.90
34095;DHT22;20372;47.080;15.410;2022-10-17T15:25:24;20.20;99.90
34095;DHT22;20372;47.080;15.410;2022-10-17T15:27:50;20.00;99.90
34095;DHT22;20372;47.080;15.410;2022-10-17T15:32:41;19.70;99.90
34095;DHT22;20372;47.080;15.410;2022-10-17T15:35:07;19.60;99.90
34095;DHT22;20372;47.080;15.410;2022-10-17T15:37:33;19.50;99.90
34095;DHT22;20372;47.080;15.410;2022-10-17T15:39:58;19.50;99.90
34095;DHT22;20372;47.080;15.410;2022-10-17T15:42:27;19.40;99.90
34095;DHT22;20372;47.080;15.410;2022-10-17T15:44:53;19.50;99.90
34095;DHT22;20372;47.080;15.410;2022-10-17T15:47:29;19.50;99.90
34095;DHT22;20372;47.080;15.410;2022-10-17T15:49:57;19.50;99.90
34095;DHT22;20372;47.080;15.410;2022-10-17T15:52:23;19.60;99.90
34095;DHT22;20372;47.080;15.410;2022-10-17T15:54:49;19.50;99.90
34095;DHT22;20372;47.080;15.410;2022-10-17T15:57:16;19.50;99.90
34095;DHT22;20372;47.080;15.410;2022-10-17T15:59:42;19.50;99.90
34095;DHT22;20372;47.080;15.410;2022-10-17T16:02:14;19.10;99.90
34095;DHT22;20372;47.080;15.410;2022-10-17T16:04:40;18.80;99.90
34095;DHT22;20372;47.080;15.410;2022-10-17T16:07:06;18.60;99.90
34095;DHT22;20372;47.080;15.410;2022-10-17T16:09:32;18.40;99.90
34095;DHT22;20372;47.080;15.410;2022-10-17T16:11:59;18.20;99.90
34095;DHT22;20372;47.080;15.410;2022-10-17T16:14:25;18.10;99.90
34095;DHT22;20372;47.080;15.410;2022-10-17T16:16:50;18.00;99.90
34095;DHT22;20372;47.080;15.410;2022-10-17T16:19:16;17.80;99.90
34095;DHT22;20372;47.080;15.410;2022-10-17T16:21:41;17.70;99.90
34095;DHT22;20372;47.080;15.410;2022-10-17T16:24:11;17.60;99.90
34095;DHT22;20372;47.080;15.410;2022-10-17T16:26:39;17.50;99.90
34095;DHT22;20372;47.080;15.410;2022-10-17T16:29:05;17.50;99.90
34095;DHT22;20372;47.080;15.410;2022-10-17T16:31:33;17.30;99.90
34095;DHT22;20372;47.080;15.410;2022-10-17T16:33:59;17.20;99.90
34095;DHT22;20372;47.080;15.410;2022-10-17T16:36:26;17.10;99.90
34095;DHT22;20372;47.080;15.410;2022-10-17T16:38:51;17.00;99.90
34095;DHT22;20372;47.080;15.410;2022-10-17T16:41:34;17.00;99.90
34095;DHT22;20372;47.080;15.410;2022-10-17T16:44:01;17.00;99.90
34095;DHT22;20372;47.080;15.410;2022-10-17T16:46:28;16.90;99.90
34095;DHT22;20372;47.080;15.410;2022-10-17T16:48:53;16.90;99.90
34095;DHT22;20372;47.080;15.410;2022-10-17T16:51:19;16.70;99.90
34095;DHT22;20372;47.080;15.410;2022-10-17T16:53:45;16.70;99.90
34095;DHT22;20372;47.080;15.410;2022-10-17T16:56:12;16.70;99.90
34095;DHT22;20372;47.080;15.410;2022-10-17T16:58:39;16.70;99.90
34095;DHT22;20372;47.080;15.410;2022-10-17T17:01:05;16.80;99.90
34095;DHT22;20372;47.080;15.410;2022-10-17T17:03:38;16.70;99.90
34095;DHT22;20372;47.080;15.410;2022-10-17T17:06:04;16.60;99.90
34095;DHT22;20372;47.080;15.410;2022-10-17T17:08:34;16.60;99.90
34095;DHT22;20372;47.080;15.410;2022-10-17T17:11:01;16.60;99.90
34095;DHT22;20372;47.080;15.410;2022-10-17T17:13:27;16.50;99.90
34095;DHT22;20372;47.080;15.410;2022-10-17T17:16:04;16.30;99.90
34095;DHT22;20372;47.080;15.410;2022-10-17T17:18:31;16.20;99.90
34095;DHT22;20372;47.080;15.410;2022-10-17T17:20:57;16.20;99.90
34095;DHT22;20372;47.080;15.410;2022-10-17T17:23:23;16.20;99.90